AirNav   SIMCOM
 
 1320 users online  

IN46 Butler Field Airport
Rockville, Indiana, USA

GOING TO ROCKVILLE?


FAA INFORMATION EFFECTIVE 20 JULY 2017

Location

FAA Identifier: IN46
Lat/Long: 39-44-20.1450N / 087-13-10.0510W
39-44.335750N / 087-13.167517W
39.7389292 / -87.2194586
(estimated)
Elevation: 687 ft. / 209.4 m (surveyed)
Variation: 01W (1985)
From city: 2 miles S of ROCKVILLE, IN
Time zone: UTC -4 (UTC -5 during Standard Time)
Zip code: 47872

Airport Operations

Airport use: Private use. Permission required prior to landing
Activation date: 09/1969
Control tower: no
ARTCC: INDIANAPOLIS CENTER
FSS: TERRE HAUTE FLIGHT SERVICE STATION
Attendance: UNATNDD
Wind indicator: yes
Segmented circle: no

Airport Communications

WX ASOS at HUF (18 nm S): PHONE 812-877-7010
WX AWOS-3PT at CFJ (20 nm NE): 125.650 (765-362-2967)
WX AWOS-3 at GPC (20 nm E): 118.125 (765-653-1789)

Nearby radio navigation aids

VOR radial/distance  VOR name  Freq  Var
TTHr003/15.1TERRE HAUTE VORTAC115.3002E
DNVr153/36.7DANVILLE VORTAC111.0002E
VHPr262/39.5BRICKYARD VORTAC116.3001E

 
NDB name  Hdg/Dist  Freq  Var  ID
CRAWFORDSVILLE226/20.238802WCFJ -.-. ..-. .---
HOMER116/37.928101EHMJ .... -- .---
SULLIVAN018/39.032602WSIV ... .. ...-

Airport Services

Fuel available: 100LL
FUEL NOT FOR SALE TO PUBLIC.
Parking: hangars
Airframe service: NONE
Powerplant service: NONE
Bottled oxygen: NONE
Bulk oxygen: NONE

Runway Information

Runway 9/27

Dimensions: 2081 x 65 ft. / 634 x 20 m
Surface: turf
RUNWAY 9  RUNWAY 27
Traffic pattern: leftleft
Obstructions: trees, 87 ft. from runway, 12:1 slope to cleartrees, 500 ft. from runway, 20:1 slope to clear

Airport Ownership and Management from official FAA records

Ownership: Privately-owned
Owner: JACK BUTLER
251 W. HWY US 36
ROCKVILLE, IN 47872
Phone 812-569-6379
Manager: J.B. BUTLER
251 W. US 36
ROCKVILLE, IN 47872

Airport Operational Statistics

Aircraft based on the field: 7
Single engine airplanes: 7
    

Additional Remarks

FOR INFO CTC JACK UNDERWOOD, 765-569-6915, BUTLER PILOS ASSOC.

Instrument Procedures

There are no published instrument procedures at IN46.

Some nearby airports with instrument procedures:

3I3 - Sky King Airport (14 nm SW)
0I2 - Brazil Clay County Airport (17 nm S)
KHUF - Terre Haute International Airport-Hulman Field (18 nm S)
KCFJ - Crawfordsville Municipal Airport (20 nm NE)
KGPC - Putnam County Regional Airport (20 nm E)
 
Loc | Ops | Rwys | IFR | FBO | Links
Com | Nav | Svcs | Stats | Notes

City of Findlay
 
Area around IN46 (Butler Field Airport)
 
Road maps at: MapQuest Bing Google
 
Aerial photo
WARNING: Photo may not be current or correct
Aerial photo of IN46 (Butler Field Airport)
Photo taken 11-Jan-2010
looking east.

Do you have a better or more recent aerial photo of Butler Field Airport that you would like to share? If so, please send us your photo.

 
Sectional chart

 
Airport distance calculator
Flying to Butler Field Airport? Find the distance to fly.

From to IN46

Sunrise and sunset
Times for 28-Jul-2017
 Local
(UTC-4)
 Zulu
(UTC)
Morning civil twilight06:1510:15
Sunrise06:4510:45
Sunset21:0501:05
Evening civil twilight21:3601:36

Current date and time
Zulu (UTC)  28-Jul-2017 13:44:24
Local (UTC-4)  28-Jul-2017 09:44:24
 
METAR
KHUF 
18nm S 
281331Z AUTO 01006KT 6SM BR OVC004 22/21 A2987 RMK AO2 T02220206
KGPC 
20nm E 
281335Z AUTO 03006KT 4SM BR SCT003 BKN017 OVC034 22/22 A2988 RMK AO2
KPRG 
21nm W 
281335Z AUTO 03006KT 1 3/4SM BR OVC003 21/21 A2989 RMK AO2 T02100210
KDNV 
33nm NW 
281335Z AUTO 05009G14KT 4SM BR OVC006 22/21 A2988 RMK AO2 T02200212
TAF
KHUF 
18nm S 
281122Z 2812/2912 01005KT 6SM BR BKN012 FM281500 04007KT P6SM BKN020 FM281600 03008KT P6SM BKN035 FM281800 03010KT P6SM SCT060 FM290200 01006KT P6SM SKC
NOTAMs
Click for the latest NOTAMs
NOTAMs are issued by the DoD/FAA and will open in a separate window not controlled by AirNav.

 

 
 

Would you like to see your business listed on this page?

 If your business provides an interesting product or service to pilots, flight crews, aircraft, or users of the Butler Field Airport, you should consider listing it here.  To start the listing process, click on the button below
 
Add a business
 

Other Pages about Butler Field Airport

Update a link
 
Copyright © AirNav, LLC. All rights reserved. Privacy Policy  Contact